createdAt,value
2023-01-23T00:03:43.895Z,89.69
2023-01-23T00:08:46.479Z,90.17
2023-01-23T00:13:48.305Z,90.50
2023-01-23T00:18:51.216Z,89.66
2023-01-23T00:23:55.367Z,89.53
2023-01-23T00:28:57.343Z,89.32
2023-01-23T00:34:01.309Z,88.74
2023-01-23T00:39:07.102Z,89.18
2023-01-23T00:44:08.542Z,88.17
2023-01-23T00:49:10.007Z,87.91
2023-01-23T00:54:11.963Z,88.29
2023-01-23T00:59:13.663Z,88.08
2023-01-23T01:04:15.125Z,87.49
2023-01-23T01:09:16.623Z,87.40
2023-01-23T01:14:19.354Z,87.18
2023-01-23T01:19:21.645Z,87.07
2023-01-23T01:24:23.099Z,86.69
2023-01-23T01:29:24.559Z,87.16
2023-01-23T01:34:26.011Z,86.89
2023-01-23T01:39:27.471Z,86.69
2023-01-23T01:44:48.651Z,86.91
2023-01-23T01:49:53.648Z,87.84
2023-01-23T01:55:02.299Z,87.80
2023-01-23T02:00:09.123Z,88.14
2023-01-23T02:05:23.856Z,88.85
2023-01-23T02:10:25.581Z,87.71
2023-01-23T02:15:27.101Z,87.85
2023-01-23T02:20:28.755Z,88.12
2023-01-23T02:25:38.659Z,87.55
2023-01-23T02:30:42.391Z,87.14
2023-01-23T02:35:43.951Z,87.37
2023-01-23T02:40:46.156Z,86.48
2023-01-23T02:45:54.296Z,87.30
2023-01-23T02:50:56.053Z,87.16
2023-01-23T02:55:58.802Z,86.44
2023-01-23T03:01:00.408Z,86.83
2023-01-23T03:06:04.035Z,86.03
2023-01-23T03:11:05.523Z,86.50
2023-01-23T03:16:07.465Z,86.44
2023-01-23T03:21:08.972Z,87.80
2023-01-23T03:26:10.453Z,88.47
2023-01-23T03:31:13.477Z,88.77
2023-01-23T03:36:15.115Z,88.61
2023-01-23T03:41:25.601Z,89.03
2023-01-23T03:46:29.332Z,90.03
2023-01-23T03:51:30.868Z,89.73
2023-01-23T03:56:32.355Z,89.81
2023-01-23T04:01:34.764Z,89.30
2023-01-23T04:06:38.869Z,88.38
2023-01-23T04:11:40.669Z,87.51
2023-01-23T04:16:43.473Z,87.08
2023-01-23T04:21:46.125Z,86.81
2023-01-23T04:26:47.669Z,87.02
2023-01-23T04:31:49.407Z,86.86
2023-01-23T04:36:52.169Z,87.57
2023-01-23T04:41:54.050Z,86.73
2023-01-23T04:47:04.352Z,85.92
2023-01-23T04:52:05.873Z,86.37
2023-01-23T04:57:11.547Z,85.48
2023-01-23T05:02:13.346Z,85.79
2023-01-23T05:07:18.000Z,85.82
2023-01-23T05:12:32.698Z,87.37
2023-01-23T05:17:34.376Z,88.30
2023-01-23T05:22:37.123Z,88.20
2023-01-23T05:27:38.615Z,88.72
2023-01-23T05:32:40.343Z,87.92
2023-01-23T05:37:53.931Z,88.20
2023-01-23T05:42:58.353Z,87.59
2023-01-23T05:48:18.509Z,88.34
2023-01-23T05:53:20.161Z,88.76
2023-01-23T05:58:21.718Z,88.82
2023-01-23T06:03:43.561Z,89.00
2023-01-23T06:09:05.854Z,89.15
2023-01-23T06:14:07.430Z,88.50
2023-01-23T06:19:10.101Z,87.95
2023-01-23T06:24:11.588Z,87.73
2023-01-23T06:29:13.872Z,88.74
2023-01-23T06:34:15.939Z,88.63
2023-01-23T06:39:27.897Z,89.49
2023-01-23T06:44:29.504Z,89.52
2023-01-23T06:49:31.473Z,90.30
2023-01-23T06:54:33.198Z,89.64
2023-01-23T06:59:37.290Z,90.01
2023-01-23T07:04:42.261Z,89.55
2023-01-23T07:09:45.643Z,88.50
2023-01-23T07:14:56.171Z,88.44
2023-01-23T07:20:03.744Z,88.60
2023-01-23T07:25:07.547Z,88.67
2023-01-23T07:30:10.328Z,89.25
2023-01-23T07:35:11.749Z,89.46
2023-01-23T07:40:13.509Z,89.28
2023-01-23T07:45:15.004Z,89.24
2023-01-23T07:50:16.669Z,88.81
2023-01-23T07:55:18.505Z,89.40
2023-01-23T08:00:22.299Z,89.87
2023-01-23T08:05:24.895Z,89.41
2023-01-23T08:10:26.334Z,90.32
2023-01-23T08:15:30.768Z,90.02
2023-01-23T08:20:32.520Z,90.51
2023-01-23T08:25:33.948Z,90.71
2023-01-23T08:30:35.412Z,90.61
2023-01-23T08:35:37.700Z,89.94
2023-01-23T08:40:39.073Z,90.19
2023-01-23T08:45:41.164Z,89.75
2023-01-23T08:50:42.616Z,90.03
2023-01-23T08:55:44.483Z,90.33
2023-01-23T09:00:47.932Z,90.28
2023-01-23T09:05:49.372Z,90.67
2023-01-23T09:10:50.801Z,90.51
2023-01-23T09:15:52.215Z,90.52
2023-01-23T09:20:54.491Z,91.09
2023-01-23T09:25:55.934Z,91.02
2023-01-23T09:30:57.404Z,90.67
2023-01-23T09:35:58.996Z,91.49
2023-01-23T09:41:09.132Z,91.01
2023-01-23T09:46:13.284Z,90.83
2023-01-23T09:51:29.007Z,91.39
2023-01-23T09:56:38.398Z,91.35
2023-01-23T10:01:40.159Z,91.11
2023-01-23T10:07:12.070Z,90.83
2023-01-23T10:12:27.954Z,90.36
2023-01-23T10:17:50.700Z,89.76
2023-01-23T10:23:11.007Z,89.57
2023-01-23T10:28:29.695Z,88.80
2023-01-23T10:33:56.400Z,89.32
2023-01-23T10:39:03.872Z,89.24
2023-01-23T10:44:13.726Z,88.69
2023-01-23T10:49:37.507Z,88.61
2023-01-23T10:54:46.969Z,88.47
2023-01-23T10:59:54.299Z,88.59
2023-01-23T11:04:56.193Z,87.56
2023-01-23T11:10:08.189Z,87.18
2023-01-23T11:15:25.234Z,87.34
2023-01-23T11:20:38.325Z,87.01
2023-01-23T11:25:46.528Z,87.23
2023-01-23T11:31:00.884Z,87.31
2023-01-23T11:36:18.423Z,87.76
2023-01-23T11:41:28.188Z,87.20
2023-01-23T11:47:13.568Z,86.90
2023-01-23T11:52:37.202Z,87.16
2023-01-23T11:57:53.656Z,87.05
2023-01-23T12:03:32.397Z,87.42
2023-01-23T12:09:05.394Z,87.44
2023-01-23T12:14:21.036Z,87.03
2023-01-23T12:19:36.002Z,87.66
2023-01-23T12:24:46.315Z,86.86
2023-01-23T12:30:27.035Z,87.67
2023-01-23T12:35:36.316Z,86.39
2023-01-23T12:40:45.841Z,86.78
2023-01-23T12:46:01.131Z,86.31
2023-01-23T12:51:10.555Z,86.95
2023-01-23T12:56:23.096Z,87.66
2023-01-23T13:01:50.030Z,88.02
2023-01-23T13:07:56.154Z,87.07
2023-01-23T13:12:57.812Z,86.91
2023-01-23T13:18:01.939Z,87.67
2023-01-23T13:23:35.213Z,87.46
2023-01-23T13:28:46.230Z,87.21
2023-01-23T13:33:51.551Z,86.73
2023-01-23T13:39:16.541Z,86.47
2023-01-23T13:44:40.753Z,87.64
2023-01-23T14:22:40.527Z,87.28
2023-01-23T14:27:52.882Z,87.26
2023-01-23T14:32:56.075Z,88.29
2023-01-23T14:38:05.761Z,87.61
2023-01-23T14:43:08.803Z,89.03
2023-01-23T14:48:15.915Z,88.40
2023-01-23T14:53:17.433Z,89.21
2023-01-23T14:58:23.528Z,89.22
2023-01-23T15:03:57.467Z,89.54
2023-01-23T15:09:08.906Z,89.53
2023-01-23T15:14:24.891Z,89.43
2023-01-23T15:19:26.499Z,89.75
2023-01-23T15:24:28.494Z,89.98
2023-01-23T15:29:31.299Z,90.39
2023-01-23T15:34:34.340Z,90.31
2023-01-23T15:39:39.800Z,89.67
2023-01-23T15:44:42.796Z,90.39
2023-01-23T15:49:44.449Z,90.11
2023-01-23T15:54:46.273Z,90.58
2023-01-23T15:59:47.703Z,90.29
2023-01-23T16:04:49.677Z,90.52
2023-01-23T16:09:52.749Z,90.44
2023-01-23T16:14:54.844Z,91.13
2023-01-23T16:19:56.290Z,91.18
2023-01-23T16:24:58.329Z,90.96
2023-01-23T16:29:59.779Z,90.17
2023-01-23T16:35:01.215Z,90.54
2023-01-23T16:40:04.018Z,90.34
2023-01-23T16:45:23.967Z,90.31
2023-01-23T16:50:39.722Z,90.07
2023-01-23T16:55:42.166Z,90.12
2023-01-23T17:00:44.039Z,90.29
2023-01-23T17:05:45.514Z,90.11
2023-01-23T17:10:52.042Z,90.40
2023-01-23T17:15:55.733Z,90.64
2023-01-23T17:20:58.359Z,90.68
2023-01-23T17:26:01.504Z,91.13
2023-01-23T17:31:04.830Z,90.62
2023-01-23T17:36:07.443Z,90.65
2023-01-23T17:41:15.783Z,90.34
2023-01-23T17:46:23.799Z,89.63
2023-01-23T17:51:26.166Z,89.35
2023-01-23T17:56:27.639Z,89.90
2023-01-23T18:01:29.393Z,89.39
2023-01-23T18:06:30.852Z,89.87
2023-01-23T18:11:33.127Z,89.98
2023-01-23T18:16:45.077Z,90.08
2023-01-23T18:21:52.628Z,89.28
2023-01-23T18:27:20.891Z,89.01
2023-01-23T18:32:54.754Z,89.55
2023-01-23T18:38:15.603Z,89.33
2023-01-23T18:43:33.288Z,88.96
2023-01-23T18:48:35.066Z,88.54
2023-01-23T18:53:59.485Z,88.11
2023-01-23T18:59:19.037Z,89.14
2023-01-23T19:04:30.415Z,89.56
2023-01-23T19:09:34.595Z,89.38
2023-01-23T19:15:16.255Z,89.20
2023-01-23T19:20:30.419Z,88.66
2023-01-23T19:25:31.950Z,88.66
2023-01-23T19:30:33.610Z,88.30
2023-01-23T19:35:35.073Z,88.49
2023-01-23T19:40:36.532Z,88.58
2023-01-23T19:45:37.967Z,88.17
2023-01-23T19:50:39.585Z,88.71
2023-01-23T19:55:41.265Z,88.33
2023-01-23T20:00:42.829Z,88.46
2023-01-23T20:05:44.364Z,88.16
2023-01-23T20:10:45.816Z,88.31
2023-01-23T20:15:50.000Z,88.02
2023-01-23T20:20:58.370Z,87.74
2023-01-23T20:26:01.713Z,87.59
2023-01-23T20:31:08.653Z,87.44
2023-01-23T20:36:11.201Z,88.40
2023-01-23T20:41:15.928Z,87.83
2023-01-23T20:46:19.267Z,88.32
2023-01-23T20:51:20.771Z,88.32
2023-01-23T20:56:27.464Z,88.11
2023-01-23T21:01:54.620Z,88.66
2023-01-23T21:06:56.576Z,88.94
2023-01-23T21:11:58.092Z,88.54
2023-01-23T21:16:59.577Z,87.95
2023-01-23T21:22:01.014Z,87.47
2023-01-23T21:27:04.443Z,87.86
2023-01-23T21:32:06.234Z,87.96
2023-01-23T21:37:10.752Z,89.15
2023-01-23T21:42:13.090Z,88.41
2023-01-23T21:47:14.519Z,89.56
2023-01-23T21:52:15.949Z,89.45
2023-01-23T21:57:17.382Z,90.37
2023-01-23T22:02:18.843Z,89.25
2023-01-23T22:07:20.480Z,88.72
2023-01-23T22:12:21.955Z,89.42
2023-01-23T22:17:23.410Z,89.62
2023-01-23T22:22:24.845Z,89.36
2023-01-23T22:27:26.281Z,89.93
2023-01-23T22:32:27.709Z,90.02
2023-01-23T22:37:30.393Z,90.17
2023-01-23T22:42:32.843Z,90.48
2023-01-23T22:47:34.262Z,90.41
2023-01-23T22:52:35.730Z,89.70
2023-01-23T22:57:37.365Z,89.87
2023-01-23T23:02:39.091Z,90.19
2023-01-23T23:07:40.649Z,89.77
2023-01-23T23:12:42.084Z,89.47
2023-01-23T23:17:43.573Z,89.17
2023-01-23T23:22:45.194Z,88.34
2023-01-23T23:27:46.627Z,88.75
2023-01-23T23:32:48.121Z,89.20
2023-01-23T23:37:49.693Z,89.61
2023-01-23T23:42:51.105Z,89.92
2023-01-23T23:47:52.798Z,89.98
2023-01-23T23:52:54.232Z,89.64
2023-01-23T23:57:55.661Z,90.54
